Time;durP1;ratioP1;P1;durP2;ratioP2;P2;SDS_P1;SDS_P2;PMS_P1;PMS_P2;Temp;Humidity;BMP_temperature;BMP_pressure;BME280_temperature;BME280_humidity;BME280_pressure;Samples;Min_cycle;Max_cycle;Signal;HPM_P1;HPM_P2
2022/01/03 00:00:52;;;;;;;21.87;3.30;;;12.70;99.90;;;;;;5039536;28;20578;-24
2022/01/03 00:03:20;;;;;;;14.57;3.07;;;12.70;99.90;;;;;;5025500;28;20204;-24
2022/01/03 00:05:48;;;;;;;15.13;3.20;;;12.60;99.90;;;;;;5028840;28;20237;-24
2022/01/03 00:08:15;;;;;;;15.40;3.17;;;12.60;99.90;;;;;;5030730;28;20300;-24
2022/01/03 00:10:43;;;;;;;12.97;2.53;;;12.60;99.90;;;;;;5029413;28;20204;-24
2022/01/03 00:13:10;;;;;;;10.40;2.40;;;12.60;99.90;;;;;;5028908;28;20660;-24
2022/01/03 00:15:39;;;;;;;12.63;2.50;;;12.60;99.90;;;;;;5029950;28;20594;-24
2022/01/03 00:18:07;;;;;;;16.13;3.13;;;12.60;99.90;;;;;;5030519;28;20212;-24
2022/01/03 00:20:34;;;;;;;13.27;3.00;;;12.60;99.90;;;;;;5029147;28;20220;-24
2022/01/03 00:23:04;;;;;;;16.20;2.93;;;12.60;99.90;;;;;;5028350;28;20220;-24
2022/01/03 00:25:41;;;;;;;10.73;2.63;;;12.60;99.90;;;;;;5010515;28;20229;-24
2022/01/03 00:28:15;;;;;;;11.50;2.70;;;12.50;99.90;;;;;;5019807;28;20205;-24
2022/01/03 00:30:46;;;;;;;16.70;3.03;;;12.50;99.90;;;;;;5025777;28;20690;-24
2022/01/03 00:33:18;;;;;;;13.33;3.00;;;12.50;99.90;;;;;;5029670;28;20224;-24
2022/01/03 00:35:53;;;;;;;14.13;2.50;;;12.50;99.90;;;;;;5023862;28;20704;-24
2022/01/03 00:38:27;;;;;;;13.27;3.10;;;12.50;99.90;;;;;;5027983;28;20641;-24
2022/01/03 00:40:55;;;;;;;12.50;2.60;;;12.50;99.90;;;;;;5044874;28;20212;-24
2022/01/03 00:43:22;;;;;;;12.63;2.77;;;12.50;99.90;;;;;;5027742;28;20587;-24
2022/01/03 00:45:54;;;;;;;11.70;2.60;;;12.60;99.90;;;;;;5029708;28;20710;-24
2022/01/03 00:48:22;;;;;;;15.13;3.23;;;12.60;99.90;;;;;;5029505;28;20296;-24
2022/01/03 00:50:55;;;;;;;14.30;2.80;;;12.60;99.90;;;;;;5028696;28;20707;-24
2022/01/03 00:53:24;;;;;;;14.30;2.83;;;12.60;99.90;;;;;;5023905;28;20235;-24
2022/01/03 00:56:00;;;;;;;13.07;2.87;;;12.60;99.90;;;;;;5029329;28;20648;-24
2022/01/03 00:58:34;;;;;;;16.23;2.90;;;12.50;99.90;;;;;;5028469;28;20748;-24
2022/01/03 01:01:05;;;;;;;14.50;2.80;;;12.50;99.90;;;;;;5028002;28;20258;-24
2022/01/03 01:03:36;;;;;;;13.03;2.40;;;12.60;99.90;;;;;;5028646;28;20201;-24
2022/01/03 01:06:10;;;;;;;20.20;3.70;;;12.60;99.90;;;;;;5029557;28;20463;-24
2022/01/03 01:08:42;;;;;;;16.80;2.77;;;12.60;99.90;;;;;;5027091;28;20197;-24
2022/01/03 01:11:10;;;;;;;14.87;2.53;;;12.60;99.90;;;;;;5028255;28;20206;-24
2022/01/03 01:13:39;;;;;;;13.27;2.70;;;12.60;99.90;;;;;;5023141;28;20466;-24
2022/01/03 01:16:07;;;;;;;14.60;3.13;;;12.50;99.90;;;;;;5040276;28;20198;-24
2022/01/03 01:18:41;;;;;;;14.47;2.43;;;12.50;99.90;;;;;;5024817;28;20606;-24
2022/01/03 01:21:08;;;;;;;13.27;2.87;;;12.50;99.90;;;;;;5028138;28;21032;-24
2022/01/03 01:23:41;;;;;;;12.50;2.77;;;12.50;99.90;;;;;;5027666;28;20205;-24
2022/01/03 01:28:55;;;;;;;10.97;2.70;;;12.50;99.90;;;;;;5026304;28;20205;-24
2022/01/03 01:31:24;;;;;;;16.60;2.87;;;12.50;99.90;;;;;;5029156;28;20204;-24
2022/01/03 01:33:58;;;;;;;10.27;2.47;;;12.50;99.90;;;;;;5028414;28;20212;-24
2022/01/03 01:36:28;;;;;;;17.90;3.33;;;12.50;99.90;;;;;;5028633;28;20217;-24
2022/01/03 01:39:07;;;;;;;13.37;2.23;;;12.50;99.90;;;;;;5028439;28;20561;-24
2022/01/03 01:41:39;;;;;;;12.93;2.43;;;12.50;99.90;;;;;;5028778;28;20587;-24
2022/01/03 01:44:09;;;;;;;11.70;2.50;;;12.50;99.90;;;;;;5027524;28;20209;-24
2022/01/03 01:46:43;;;;;;;10.70;2.40;;;12.40;99.90;;;;;;5025447;28;20197;-24
2022/01/03 01:49:17;;;;;;;15.00;2.90;;;12.40;99.90;;;;;;5010391;28;20240;-24
2022/01/03 01:51:48;;;;;;;11.63;2.40;;;12.40;99.90;;;;;;5027239;28;20208;-24
2022/01/03 01:54:20;;;;;;;15.83;2.90;;;12.40;99.90;;;;;;5027428;28;20579;-24
2022/01/03 01:57:08;;;;;;;11.60;2.53;;;12.40;99.90;;;;;;5027776;28;20197;-24
2022/01/03 01:59:41;;;;;;;14.47;3.00;;;12.40;99.90;;;;;;5023217;28;20200;-24
2022/01/03 02:02:15;;;;;;;16.13;2.83;;;12.40;99.90;;;;;;5029132;28;20216;-24
2022/01/03 02:04:45;;;;;;;10.70;2.77;;;12.40;99.90;;;;;;5027811;28;20314;-24
2022/01/03 02:07:51;;;;;;;15.07;3.17;;;12.40;99.90;;;;;;5028218;28;20619;-24
2022/01/03 02:10:25;;;;;;;15.60;2.83;;;12.40;99.90;;;;;;5019702;28;20259;-24
2022/01/03 02:12:53;;;;;;;13.83;2.87;;;12.40;99.90;;;;;;5027815;28;20197;-24
2022/01/03 02:15:23;;;;;;;9.17;2.17;;;12.40;99.90;;;;;;5027245;28;20271;-24
2022/01/03 02:17:50;;;;;;;13.73;2.23;;;12.40;99.90;;;;;;5029599;28;20204;-24
2022/01/03 02:20:26;;;;;;;13.80;2.87;;;12.40;99.90;;;;;;5028306;28;20304;-24
2022/01/03 02:22:54;;;;;;;12.57;3.17;;;12.40;99.90;;;;;;5026373;28;20192;-24
2022/01/03 02:25:27;;;;;;;10.90;3.03;;;12.40;99.90;;;;;;5026837;28;20231;-24
2022/01/03 02:27:55;;;;;;;16.70;3.73;;;12.40;99.90;;;;;;5027384;28;20296;-24
2022/01/03 02:30:27;;;;;;;15.00;3.33;;;12.40;99.90;;;;;;5027197;28;20262;-24
2022/01/03 02:32:54;;;;;;;12.90;3.07;;;12.40;99.90;;;;;;5028672;28;20220;-24
2022/01/03 02:35:24;;;;;;;14.03;2.70;;;12.40;99.90;;;;;;5028124;28;20239;-24
2022/01/03 02:37:54;;;;;;;10.83;2.60;;;12.40;99.90;;;;;;5027520;28;20584;-24
2022/01/03 02:40:22;;;;;;;16.63;3.20;;;12.40;99.90;;;;;;5026540;28;20466;-24
2022/01/03 02:42:50;;;;;;;11.30;2.47;;;12.40;99.90;;;;;;5027621;28;20674;-24
2022/01/03 02:45:20;;;;;;;12.60;2.70;;;12.40;99.90;;;;;;5020375;28;20232;-24
2022/01/03 02:47:59;;;;;;;11.97;2.57;;;12.40;99.90;;;;;;5026297;28;20341;-24
2022/01/03 02:50:29;;;;;;;13.83;2.70;;;12.40;99.90;;;;;;5027643;28;20229;-24
2022/01/03 02:52:57;;;;;;;11.47;2.33;;;12.40;99.90;;;;;;5028066;28;20579;-24
2022/01/03 02:55:26;;;;;;;14.10;2.83;;;12.40;99.90;;;;;;5026854;28;20217;-24
2022/01/03 02:57:58;;;;;;;19.67;3.07;;;12.40;99.90;;;;;;5014803;28;20205;-24
2022/01/03 03:00:30;;;;;;;11.93;2.67;;;12.40;99.90;;;;;;5017993;28;20535;-22
2022/01/03 03:02:57;;;;;;;13.03;2.43;;;12.40;99.90;;;;;;5028366;28;20221;-23
2022/01/03 03:05:25;;;;;;;12.57;2.43;;;12.40;99.90;;;;;;5027054;28;20247;-23
2022/01/03 03:07:55;;;;;;;8.43;2.37;;;12.40;99.90;;;;;;5027362;28;20292;-24
2022/01/03 03:10:25;;;;;;;15.27;2.57;;;12.40;99.90;;;;;;5023993;28;20216;-24
2022/01/03 03:12:52;;;;;;;12.30;2.60;;;12.40;99.90;;;;;;5023939;28;20201;-24
2022/01/03 03:15:20;;;;;;;11.47;2.30;;;12.40;99.90;;;;;;5026140;28;20208;-24
2022/01/03 03:17:48;;;;;;;9.37;2.53;;;12.40;99.90;;;;;;5027025;28;20563;-24
2022/01/03 03:20:23;;;;;;;11.17;2.40;;;12.40;99.90;;;;;;5026910;28;20237;-24
2022/01/03 03:22:51;;;;;;;12.10;3.17;;;12.40;99.90;;;;;;5027192;28;20459;-24
2022/01/03 03:25:22;;;;;;;15.63;2.93;;;12.40;99.90;;;;;;5026161;28;20231;-24
2022/01/03 03:27:52;;;;;;;14.00;3.00;;;12.40;99.90;;;;;;5027163;28;20571;-24
2022/01/03 03:30:40;;;;;;;16.67;2.90;;;12.50;99.90;;;;;;5024320;28;20197;-24
2022/01/03 03:33:13;;;;;;;12.07;2.57;;;12.40;99.90;;;;;;5026408;28;20240;-24
2022/01/03 03:35:41;;;;;;;14.57;2.73;;;12.40;99.90;;;;;;5019706;28;20564;-24
2022/01/03 03:38:10;;;;;;;17.27;2.77;;;12.40;99.90;;;;;;5020161;28;20212;-25
2022/01/03 03:40:38;;;;;;;17.37;2.97;;;12.40;99.90;;;;;;5027550;28;20211;-24
2022/01/03 03:43:07;;;;;;;11.13;2.83;;;12.40;99.90;;;;;;5028851;28;20208;-24
2022/01/03 03:45:34;;;;;;;13.57;3.27;;;12.40;99.90;;;;;;5031100;28;20216;-24
2022/01/03 03:48:06;;;;;;;14.87;3.00;;;12.40;99.90;;;;;;5030930;28;20316;-24
2022/01/03 03:50:33;;;;;;;14.80;3.33;;;12.30;99.90;;;;;;5029149;28;20228;-24
2022/01/03 03:53:00;;;;;;;16.47;3.00;;;12.40;99.90;;;;;;5024905;28;20674;-24
2022/01/03 03:55:31;;;;;;;12.87;2.90;;;12.40;99.90;;;;;;5030528;28;20213;-24
2022/01/03 03:58:01;;;;;;;14.53;2.77;;;12.40;99.90;;;;;;5011538;28;20216;-24
2022/01/03 04:00:33;;;;;;;12.87;2.73;;;12.40;99.90;;;;;;5026533;28;20219;-24
2022/01/03 04:03:00;;;;;;;15.87;3.00;;;12.40;99.90;;;;;;5029457;28;20189;-24
2022/01/03 04:05:28;;;;;;;11.83;2.73;;;12.40;99.90;;;;;;5024454;28;20231;-24
2022/01/03 04:07:55;;;;;;;15.13;3.93;;;12.30;99.90;;;;;;5027938;28;20205;-24
2022/01/03 04:10:25;;;;;;;12.53;2.77;;;12.30;99.90;;;;;;5029767;28;20274;-24
2022/01/03 04:12:54;;;;;;;12.27;2.70;;;12.30;99.90;;;;;;5030101;28;20212;-24
2022/01/03 04:15:21;;;;;;;12.47;2.87;;;12.30;99.90;;;;;;5028637;28;20719;-24
2022/01/03 04:17:49;;;;;;;13.60;2.60;;;12.30;99.90;;;;;;5028226;28;20213;-24
2022/01/03 04:20:18;;;;;;;14.57;3.27;;;12.30;99.90;;;;;;5027856;28;20204;-24
2022/01/03 04:22:45;;;;;;;15.10;3.00;;;12.30;99.90;;;;;;5030244;28;20201;-24
2022/01/03 04:25:14;;;;;;;12.43;2.20;;;12.20;99.90;;;;;;5028060;28;20225;-24
2022/01/03 04:27:42;;;;;;;13.77;2.60;;;12.30;99.90;;;;;;5029435;28;20235;-24
2022/01/03 04:30:09;;;;;;;14.93;3.23;;;12.20;99.90;;;;;;5029927;28;20232;-24
2022/01/03 04:32:36;;;;;;;13.50;2.53;;;12.30;99.90;;;;;;5030595;28;20193;-24
2022/01/03 04:35:04;;;;;;;14.97;3.33;;;12.30;99.90;;;;;;5026321;28;20244;-24
2022/01/03 04:37:34;;;;;;;12.60;2.80;;;12.20;99.90;;;;;;5030268;28;20318;-24
2022/01/03 04:40:04;;;;;;;14.67;2.90;;;12.20;99.90;;;;;;5028981;28;20640;-24
2022/01/03 04:42:31;;;;;;;13.73;2.50;;;12.30;99.90;;;;;;5028730;28;20189;-24
2022/01/03 04:44:59;;;;;;;13.20;2.90;;;12.30;99.90;;;;;;5029072;28;20247;-24
2022/01/03 04:47:26;;;;;;;11.57;2.47;;;12.30;99.90;;;;;;5030263;28;20254;-24
2022/01/03 04:49:53;;;;;;;13.90;2.80;;;12.30;99.90;;;;;;5029925;28;20236;-25
2022/01/03 04:52:23;;;;;;;14.83;2.50;;;12.30;99.90;;;;;;5028925;28;20630;-24
2022/01/03 04:54:50;;;;;;;13.27;2.60;;;12.30;99.90;;;;;;5015401;28;20537;-24
2022/01/03 04:57:20;;;;;;;11.87;2.50;;;12.30;99.90;;;;;;5026903;28;20195;-24
2022/01/03 04:59:49;;;;;;;15.57;3.10;;;12.30;99.90;;;;;;5044259;28;20228;-24
2022/01/03 05:02:17;;;;;;;12.33;2.60;;;12.30;99.90;;;;;;5029831;28;20204;-24
2022/01/03 05:04:45;;;;;;;11.27;2.60;;;12.30;99.90;;;;;;5028258;28;20201;-24
2022/01/03 05:07:14;;;;;;;14.23;2.77;;;12.30;99.90;;;;;;5030049;28;20299;-24
2022/01/03 05:09:44;;;;;;;19.10;3.10;;;12.30;99.90;;;;;;5028099;28;20201;-24
2022/01/03 05:12:11;;;;;;;12.70;2.60;;;12.30;99.90;;;;;;5022440;28;20205;-24
2022/01/03 05:14:39;;;;;;;11.77;2.60;;;12.30;99.90;;;;;;5027969;28;20197;-24
2022/01/03 05:17:09;;;;;;;11.80;2.60;;;12.30;99.90;;;;;;5029712;28;20611;-24
2022/01/03 05:19:37;;;;;;;12.67;3.07;;;12.30;99.90;;;;;;5029186;28;20199;-24
2022/01/03 05:22:04;;;;;;;11.87;2.80;;;12.30;99.90;;;;;;5029457;28;20204;-24
2022/01/03 05:24:35;;;;;;;12.50;2.40;;;12.30;99.90;;;;;;5027512;28;20220;-24
2022/01/03 05:27:03;;;;;;;12.87;2.70;;;12.30;99.90;;;;;;5028411;28;20707;-24
2022/01/03 05:29:30;;;;;;;10.07;2.90;;;12.30;99.90;;;;;;5026830;28;20216;-24
2022/01/03 05:31:58;;;;;;;14.73;2.90;;;12.30;99.90;;;;;;5028496;28;20224;-24
2022/01/03 05:34:27;;;;;;;8.50;2.03;;;12.30;99.90;;;;;;5028918;28;20205;-24
2022/01/03 05:36:57;;;;;;;11.53;2.90;;;12.30;99.90;;;;;;5025060;28;20201;-25
2022/01/03 05:39:25;;;;;;;19.00;3.13;;;12.30;99.90;;;;;;5025988;28;20216;-24
2022/01/03 05:41:52;;;;;;;12.87;2.97;;;12.30;99.90;;;;;;5028871;28;20221;-24
2022/01/03 05:44:19;;;;;;;11.40;2.50;;;12.30;99.90;;;;;;5027931;28;20296;-24
2022/01/03 05:46:47;;;;;;;11.73;2.30;;;12.30;99.90;;;;;;5029727;28;20235;-24
2022/01/03 05:49:34;;;;;;;15.83;3.00;;;12.30;99.90;;;;;;4997225;28;20224;-24
2022/01/03 05:52:04;;;;;;;12.13;2.70;;;12.30;99.90;;;;;;5029234;28;20456;-24
2022/01/03 05:54:31;;;;;;;13.97;2.90;;;12.30;99.90;;;;;;5027021;28;20721;-24
2022/01/03 05:57:01;;;;;;;15.27;3.00;;;12.30;99.90;;;;;;5026587;28;20209;-24
2022/01/03 05:59:29;;;;;;;11.60;3.00;;;12.30;99.90;;;;;;5026497;28;20236;-24
2022/01/03 06:01:56;;;;;;;14.13;3.00;;;12.30;99.90;;;;;;5040213;28;20229;-23
2022/01/03 06:04:39;;;;;;;13.80;2.93;;;12.40;99.90;;;;;;5022825;28;20225;-23
2022/01/03 06:07:08;;;;;;;16.90;3.20;;;12.40;99.90;;;;;;5028286;28;20227;-23
2022/01/03 06:09:38;;;;;;;15.00;3.00;;;12.40;99.90;;;;;;5042211;28;20203;-23
2022/01/03 06:12:06;;;;;;;16.33;2.77;;;12.40;99.90;;;;;;5028140;28;20276;-23
2022/01/03 06:14:33;;;;;;;12.60;3.13;;;12.40;99.90;;;;;;5026552;28;20216;-23
2022/01/03 06:17:01;;;;;;;10.93;3.00;;;12.40;99.90;;;;;;5028034;28;20274;-23
2022/01/03 06:19:28;;;;;;;11.10;2.67;;;12.40;99.90;;;;;;5028359;28;20311;-23
2022/01/03 06:22:03;;;;;;;14.13;2.77;;;12.40;99.90;;;;;;5026631;28;20228;-23
2022/01/03 06:24:30;;;;;;;18.63;3.37;;;12.40;99.90;;;;;;5026715;28;20213;-24
2022/01/03 06:26:58;;;;;;;15.83;3.13;;;12.40;99.90;;;;;;5027719;28;20228;-24
2022/01/03 06:29:28;;;;;;;20.40;3.90;;;12.40;99.90;;;;;;5027552;28;20513;-25
2022/01/03 06:31:58;;;;;;;12.40;3.10;;;12.40;99.90;;;;;;5026480;28;20294;-24
2022/01/03 06:34:25;;;;;;;10.53;2.97;;;12.40;99.90;;;;;;5024392;28;20231;-24
2022/01/03 06:36:53;;;;;;;14.03;3.20;;;12.40;99.90;;;;;;5021830;28;20205;-24
2022/01/03 06:39:20;;;;;;;11.50;2.80;;;12.40;99.90;;;;;;5025584;28;20733;-24
2022/01/03 06:41:47;;;;;;;13.43;3.03;;;12.40;99.90;;;;;;5027034;28;20208;-24
2022/01/03 06:44:17;;;;;;;11.73;2.50;;;12.40;99.90;;;;;;5026682;28;20205;-24
2022/01/03 06:46:48;;;;;;;16.70;2.60;;;12.40;99.90;;;;;;5025678;28;20221;-24
2022/01/03 06:49:20;;;;;;;12.93;3.13;;;12.40;99.90;;;;;;5025564;28;20291;-25
2022/01/03 06:51:47;;;;;;;15.03;2.87;;;12.40;99.90;;;;;;5027014;28;20283;-24
2022/01/03 06:54:14;;;;;;;14.30;3.40;;;12.30;99.90;;;;;;5021764;28;20693;-24
2022/01/03 06:56:42;;;;;;;10.70;2.07;;;12.30;99.90;;;;;;5018888;28;20620;-24
2022/01/03 06:59:09;;;;;;;11.73;2.20;;;12.30;99.90;;;;;;5038634;28;20216;-24
2022/01/03 07:01:39;;;;;;;13.27;2.80;;;12.30;99.90;;;;;;5025998;28;20201;-24
2022/01/03 07:04:06;;;;;;;14.47;3.20;;;12.30;99.90;;;;;;5026022;28;20295;-24
2022/01/03 07:06:36;;;;;;;11.20;2.87;;;12.30;99.90;;;;;;5022081;28;20283;-24
2022/01/03 07:09:07;;;;;;;12.97;2.70;;;12.30;99.90;;;;;;5023496;28;20702;-24
2022/01/03 07:11:37;;;;;;;15.87;3.43;;;12.30;99.90;;;;;;5025352;28;20633;-24
2022/01/03 07:18:56;;;;;;;13.33;2.83;;;12.30;99.90;;;;;;5021344;28;20205;-24
2022/01/03 07:19:52;;;;;;;11.37;2.47;;;12.30;99.90;;;;;;5025620;28;20308;-24
2022/01/03 07:22:22;;;;;;;11.90;2.33;;;12.30;99.90;;;;;;5021830;28;20217;-24
2022/01/03 07:24:51;;;;;;;11.47;2.67;;;12.30;99.90;;;;;;5022254;28;20232;-24
2022/01/03 07:27:23;;;;;;;12.37;2.53;;;12.30;99.90;;;;;;5023965;28;20228;-25
2022/01/03 07:29:53;;;;;;;14.43;3.00;;;12.30;99.90;;;;;;5019342;28;20235;-25
2022/01/03 07:32:23;;;;;;;10.60;2.57;;;12.30;99.90;;;;;;5050698;28;20201;-24
2022/01/03 07:34:51;;;;;;;10.13;2.90;;;12.30;99.90;;;;;;5023739;28;20487;-24
2022/01/03 07:37:20;;;;;;;13.03;2.90;;;12.30;99.90;;;;;;5026554;28;20201;-24
2022/01/03 07:39:48;;;;;;;12.57;2.70;;;12.30;99.90;;;;;;5026090;28;20207;-24
2022/01/03 07:42:16;;;;;;;15.57;2.57;;;12.30;99.90;;;;;;5026194;28;20209;-25
2022/01/03 07:44:43;;;;;;;13.90;2.67;;;12.20;99.90;;;;;;5025875;28;20306;-24
2022/01/03 07:47:10;;;;;;;9.17;2.60;;;12.20;99.90;;;;;;5023549;28;20256;-24
2022/01/03 07:49:40;;;;;;;11.63;3.03;;;12.20;99.90;;;;;;5025696;28;20235;-24
2022/01/03 07:52:07;;;;;;;14.07;3.20;;;12.30;99.90;;;;;;5023565;28;20552;-24
2022/01/03 07:54:34;;;;;;;9.83;2.50;;;12.30;99.90;;;;;;5021404;28;20209;-24
2022/01/03 07:57:07;;;;;;;15.60;3.00;;;12.30;99.90;;;;;;5056671;28;20204;-24
2022/01/03 07:59:34;;;;;;;12.90;2.57;;;12.30;99.90;;;;;;5055148;28;20314;-24
2022/01/03 08:02:01;;;;;;;14.63;3.37;;;12.30;99.90;;;;;;5025357;28;20313;-24
2022/01/03 08:04:31;;;;;;;16.17;3.07;;;12.30;99.90;;;;;;5024418;28;20247;-24
2022/01/03 08:07:04;;;;;;;14.60;3.40;;;12.30;99.90;;;;;;5025885;28;20229;-24
2022/01/03 08:09:31;;;;;;;11.03;2.50;;;12.30;99.90;;;;;;5024648;28;20315;-24
2022/01/03 08:12:00;;;;;;;13.47;3.17;;;12.30;99.90;;;;;;5020415;28;20383;-24
2022/01/03 08:14:30;;;;;;;18.27;3.60;;;12.30;99.90;;;;;;5023064;28;20303;-24
2022/01/03 08:16:58;;;;;;;12.63;2.57;;;12.30;99.90;;;;;;5029712;28;20194;-25
2022/01/03 08:19:26;;;;;;;16.53;3.37;;;12.30;99.90;;;;;;5025451;28;20219;-24
2022/01/03 08:21:53;;;;;;;17.70;3.07;;;12.30;99.90;;;;;;5058670;28;20932;-24
2022/01/03 08:24:22;;;;;;;13.47;2.50;;;12.40;99.90;;;;;;5023964;28;20209;-24
2022/01/03 08:26:49;;;;;;;12.37;2.70;;;12.40;99.90;;;;;;5027073;28;20228;-24
2022/01/03 08:29:17;;;;;;;12.23;2.63;;;12.40;99.90;;;;;;5029140;28;20197;-24
2022/01/03 08:31:44;;;;;;;13.53;2.67;;;12.40;99.90;;;;;;5029549;28;20197;-24
2022/01/03 08:34:14;;;;;;;14.30;3.10;;;12.40;99.90;;;;;;5029650;28;20209;-24
2022/01/03 08:36:43;;;;;;;17.17;3.60;;;12.40;99.90;;;;;;5047173;28;20212;-24
2022/01/03 08:39:10;;;;;;;16.00;3.40;;;12.40;99.90;;;;;;5029028;28;20247;-24
2022/01/03 08:41:38;;;;;;;17.23;3.10;;;12.50;99.90;;;;;;5026818;28;20304;-24
2022/01/03 08:44:06;;;;;;;15.97;3.30;;;12.50;99.90;;;;;;5022399;28;20251;-24
2022/01/03 08:46:33;;;;;;;9.20;2.50;;;12.50;99.90;;;;;;5028826;28;20699;-24
2022/01/03 08:49:01;;;;;;;12.60;3.23;;;12.50;99.90;;;;;;5022599;28;20211;-24
2022/01/03 08:51:28;;;;;;;13.37;3.03;;;12.50;99.90;;;;;;5027567;28;20201;-24
2022/01/03 08:53:56;;;;;;;13.13;2.83;;;12.50;99.90;;;;;;5029088;28;20219;-24
2022/01/03 08:56:23;;;;;;;16.10;2.87;;;12.50;99.90;;;;;;5028882;28;20236;-24
2022/01/03 08:58:50;;;;;;;15.20;3.67;;;12.50;99.90;;;;;;5021655;28;20213;-24
2022/01/03 09:01:17;;;;;;;14.70;2.73;;;12.60;99.90;;;;;;5027517;28;20201;-24
2022/01/03 09:03:50;;;;;;;11.30;2.97;;;12.60;99.90;;;;;;5027765;28;20778;-24
2022/01/03 09:06:19;;;;;;;15.07;2.60;;;12.60;99.90;;;;;;5031191;28;20205;-25
2022/01/03 09:08:51;;;;;;;10.47;2.30;;;12.60;99.90;;;;;;5042870;28;20312;-24
2022/01/03 09:11:18;;;;;;;14.60;3.23;;;12.60;99.90;;;;;;5028216;28;20224;-24
2022/01/03 09:13:46;;;;;;;15.23;2.53;;;12.70;99.90;;;;;;5027272;28;20201;-24
2022/01/03 09:16:13;;;;;;;10.67;3.03;;;12.70;99.90;;;;;;5025954;28;20221;-24
2022/01/03 09:18:41;;;;;;;9.63;2.60;;;12.70;99.90;;;;;;5026775;28;20253;-24
2022/01/03 09:21:09;;;;;;;14.30;2.73;;;12.60;99.90;;;;;;5026678;28;20201;-24
2022/01/03 09:23:41;;;;;;;11.67;2.43;;;12.70;99.90;;;;;;5034062;28;20202;-24
2022/01/03 09:29:00;;;;;;;9.53;2.37;;;12.70;99.90;;;;;;5026793;28;20223;-24
2022/01/03 09:31:38;;;;;;;9.40;2.07;;;12.70;99.90;;;;;;5026414;28;20197;-24
2022/01/03 09:34:06;;;;;;;10.10;2.33;;;12.80;99.90;;;;;;5025449;28;20689;-24
2022/01/03 09:36:37;;;;;;;10.60;2.50;;;12.80;99.90;;;;;;5025176;28;20209;-24
2022/01/03 09:39:07;;;;;;;11.73;2.60;;;12.80;99.90;;;;;;5026010;28;20208;-24
2022/01/03 09:41:38;;;;;;;7.37;1.90;;;12.80;99.90;;;;;;5025464;28;20223;-23
2022/01/03 09:44:11;;;;;;;10.87;2.63;;;12.80;99.90;;;;;;5025617;28;21033;-23
2022/01/03 09:46:41;;;;;;;11.80;3.37;;;12.80;99.90;;;;;;5026628;28;20319;-24
2022/01/03 09:49:15;;;;;;;11.83;2.37;;;12.90;99.90;;;;;;5027475;28;20236;-24
2022/01/03 09:51:45;;;;;;;10.97;2.37;;;12.90;99.90;;;;;;5026735;28;20208;-24
2022/01/03 09:54:19;;;;;;;11.07;2.57;;;12.90;99.90;;;;;;5026834;28;20911;-24
2022/01/03 09:56:51;;;;;;;12.97;2.80;;;12.90;99.90;;;;;;5008774;28;20205;-24
2022/01/03 09:59:19;;;;;;;12.83;2.63;;;12.90;99.90;;;;;;5022853;28;20208;-24
2022/01/03 10:01:46;;;;;;;10.53;2.30;;;12.90;99.90;;;;;;5059672;28;20221;-24
2022/01/03 10:04:18;;;;;;;10.00;2.17;;;12.90;99.90;;;;;;5027090;28;20619;-24
2022/01/03 10:06:46;;;;;;;8.83;2.17;;;12.90;99.90;;;;;;5043042;28;20228;-24
2022/01/03 10:09:14;;;;;;;10.90;2.30;;;13.00;99.90;;;;;;5028092;28;20263;-24
2022/01/03 10:11:41;;;;;;;13.40;2.50;;;12.90;99.90;;;;;;5027485;28;20213;-24
2022/01/03 10:14:11;;;;;;;13.03;2.60;;;13.00;99.90;;;;;;5025201;28;20203;-24
2022/01/03 10:16:40;;;;;;;15.73;2.73;;;13.00;99.90;;;;;;5027187;28;20450;-24
2022/01/03 10:19:18;;;;;;;14.60;2.70;;;13.00;99.90;;;;;;5042217;28;20216;-24
2022/01/03 10:21:49;;;;;;;13.40;2.73;;;13.00;99.90;;;;;;5027435;28;20699;-24
2022/01/03 10:24:18;;;;;;;10.67;2.73;;;13.00;99.90;;;;;;5026974;28;20205;-24
2022/01/03 10:26:54;;;;;;;13.17;2.70;;;13.00;99.90;;;;;;5027993;28;20219;-24
2022/01/03 10:29:24;;;;;;;12.10;3.00;;;13.00;99.90;;;;;;5034820;28;20227;-24
2022/01/03 10:31:58;;;;;;;14.90;3.47;;;13.00;99.90;;;;;;5025080;28;20679;-24
2022/01/03 10:34:25;;;;;;;13.97;2.60;;;13.10;99.90;;;;;;5008278;28;20635;-24
2022/01/03 10:36:57;;;;;;;13.33;3.40;;;13.10;99.90;;;;;;5024579;28;20244;-24
2022/01/03 10:39:29;;;;;;;15.47;3.13;;;13.00;99.90;;;;;;5025866;28;20211;-24
2022/01/03 10:42:17;;;;;;;14.40;3.50;;;13.10;99.90;;;;;;5027829;28;20229;-24
2022/01/03 10:44:46;;;;;;;13.33;3.27;;;13.10;99.90;;;;;;5053913;28;20220;-24
2022/01/03 10:47:27;;;;;;;17.33;3.53;;;13.10;99.90;;;;;;5026896;28;20217;-24
2022/01/03 10:49:55;;;;;;;12.97;3.47;;;13.10;99.90;;;;;;5026502;28;20239;-24
2022/01/03 10:52:28;;;;;;;16.30;3.30;;;13.10;99.90;;;;;;5027401;28;20749;-24
2022/01/03 10:55:22;;;;;;;15.50;3.63;;;13.10;99.90;;;;;;5026442;28;20321;-24
2022/01/03 10:57:52;;;;;;;14.67;3.30;;;13.10;99.90;;;;;;5027149;28;20282;-24
2022/01/03 11:00:30;;;;;;;18.47;3.67;;;13.10;99.90;;;;;;5026344;28;20205;-24
2022/01/03 11:03:14;;;;;;;14.90;3.10;;;13.10;99.90;;;;;;5040586;28;20573;-24
2022/01/03 11:05:47;;;;;;;16.57;3.40;;;13.10;99.90;;;;;;5012398;28;20543;-24
2022/01/03 11:11:10;;;;;;;11.70;2.87;;;13.10;99.90;;;;;;5023964;28;20215;-24
2022/01/03 11:13:43;;;;;;;13.10;3.17;;;13.00;99.90;;;;;;5038371;28;20213;-24
2022/01/03 11:16:15;;;;;;;13.90;3.50;;;13.00;99.90;;;;;;5023332;28;20255;-24
2022/01/03 11:18:48;;;;;;;17.53;3.70;;;13.00;99.90;;;;;;5026381;28;20200;-24
2022/01/03 11:21:19;;;;;;;19.93;3.63;;;13.00;99.90;;;;;;5020766;28;20262;-24
2022/01/03 11:24:09;;;;;;;18.50;3.33;;;13.10;99.90;;;;;;5022208;28;20212;-24
2022/01/03 11:26:46;;;;;;;13.83;3.17;;;13.10;99.90;;;;;;5026091;28;20213;-24
2022/01/03 11:29:16;;;;;;;12.23;3.00;;;13.10;99.90;;;;;;5025326;28;20425;-24
2022/01/03 11:31:50;;;;;;;19.20;3.83;;;13.10;99.90;;;;;;5025939;28;20591;-24
2022/01/03 11:34:25;;;;;;;15.40;3.30;;;13.10;99.90;;;;;;5029563;28;20203;-24
2022/01/03 11:37:05;;;;;;;17.47;3.63;;;13.10;99.90;;;;;;5033934;28;20204;-24
2022/01/03 11:39:36;;;;;;;20.50;3.50;;;13.10;99.90;;;;;;5019974;28;20742;-24
2022/01/03 11:42:03;;;;;;;16.43;3.23;;;13.10;99.90;;;;;;5024599;28;20212;-24
2022/01/03 11:44:32;;;;;;;13.53;2.80;;;13.10;99.90;;;;;;5028487;28;20196;-24
2022/01/03 11:47:02;;;;;;;13.53;3.30;;;13.10;99.90;;;;;;5029708;28;20215;-24
2022/01/03 11:49:32;;;;;;;13.23;2.80;;;13.10;99.90;;;;;;5033693;28;20734;-24
2022/01/03 11:52:01;;;;;;;14.37;3.50;;;13.10;99.90;;;;;;5027725;28;20239;-24
2022/01/03 11:54:30;;;;;;;11.57;3.10;;;13.10;99.90;;;;;;5025670;28;20575;-24
2022/01/03 12:05:54;;;;;;;14.37;3.03;;;13.00;99.90;;;;;;5022951;28;20213;-24
2022/01/03 12:08:30;;;;;;;12.90;3.30;;;13.00;99.90;;;;;;5028346;28;21693;-25
2022/01/03 12:11:03;;;;;;;10.50;3.03;;;12.90;99.90;;;;;;5030278;28;20231;-24
2022/01/03 12:13:50;;;;;;;11.07;2.67;;;12.90;99.90;;;;;;5035146;28;20209;-24
2022/01/03 12:16:41;;;;;;;11.13;2.40;;;13.00;99.90;;;;;;5030104;28;20263;-24
2022/01/03 12:19:12;;;;;;;13.17;2.73;;;12.90;99.90;;;;;;5043948;28;20196;-24
2022/01/03 12:21:50;;;;;;;10.50;2.20;;;12.90;99.90;;;;;;5031157;28;20209;-24
2022/01/03 12:24:26;;;;;;;7.63;1.90;;;12.90;99.90;;;;;;5031065;28;20587;-24
2022/01/03 12:27:21;;;;;;;6.60;1.83;;;12.90;99.90;;;;;;5028875;28;20213;-24
2022/01/03 12:29:57;;;;;;;10.63;1.93;;;12.80;99.90;;;;;;5011568;28;20579;-24
2022/01/03 12:32:35;;;;;;;7.07;1.67;;;12.80;99.90;;;;;;5027400;28;20200;-24
2022/01/03 12:35:10;;;;;;;5.83;1.40;;;12.80;99.90;;;;;;5029552;28;20338;-24
2022/01/03 12:37:44;;;;;;;8.33;1.80;;;12.70;99.90;;;;;;5029590;28;20563;-24
2022/01/03 12:40:25;;;;;;;9.10;1.60;;;12.70;99.90;;;;;;5036649;28;20208;-24
2022/01/03 12:43:06;;;;;;;7.37;1.83;;;12.70;99.90;;;;;;5027186;28;20212;-24
2022/01/03 12:45:33;;;;;;;7.40;1.83;;;12.70;99.90;;;;;;5029691;28;20205;-24
2022/01/03 12:48:10;;;;;;;6.20;1.90;;;12.60;99.90;;;;;;5028122;28;20561;-24
2022/01/03 12:50:53;;;;;;;4.37;1.40;;;12.60;99.90;;;;;;5027197;28;20252;-24
2022/01/03 12:53:23;;;;;;;5.27;1.60;;;12.50;99.90;;;;;;5017846;28;20215;-24
2022/01/03 12:55:53;;;;;;;5.43;1.70;;;12.50;99.90;;;;;;5044488;28;20201;-24
2022/01/03 12:58:23;;;;;;;6.13;1.50;;;12.50;99.90;;;;;;5025798;28;20212;-24
2022/01/03 13:01:20;;;;;;;5.60;1.50;;;12.40;99.90;;;;;;5027146;28;20237;-24
2022/01/03 13:03:53;;;;;;;6.17;1.43;;;12.40;99.90;;;;;;5023057;28;20511;-24
2022/01/03 13:06:24;;;;;;;4.23;1.57;;;12.40;99.90;;;;;;5029368;28;20207;-24
2022/01/03 13:08:54;;;;;;;5.97;2.00;;;12.40;99.90;;;;;;5026590;28;20283;-24
2022/01/03 13:11:27;;;;;;;5.27;1.70;;;12.40;99.90;;;;;;5029093;28;20616;-24
2022/01/03 13:14:20;;;;;;;4.97;1.63;;;12.40;99.90;;;;;;5023393;28;20224;-24
2022/01/03 13:16:56;;;;;;;6.13;1.80;;;12.40;99.90;;;;;;5029232;28;20201;-24